sensor_id;sensor_type;location;lat;lon;timestamp;P1;durP1;ratioP1;P2;durP2;ratioP2
7813;SDS011;3952;48.364;16.022;2022-10-04T00:01:04;1.23;;;1.00;;
7813;SDS011;3952;48.364;16.022;2022-10-04T00:03:35;2.07;;;1.10;;
7813;SDS011;3952;48.364;16.022;2022-10-04T00:06:12;1.47;;;1.37;;
7813;SDS011;3952;48.364;16.022;2022-10-04T00:08:44;1.47;;;1.00;;
7813;SDS011;3952;48.364;16.022;2022-10-04T00:11:17;2.10;;;1.03;;
7813;SDS011;3952;48.364;16.022;2022-10-04T00:13:49;1.20;;;1.10;;
7813;SDS011;3952;48.364;16.022;2022-10-04T00:16:20;0.70;;;0.70;;
7813;SDS011;3952;48.364;16.022;2022-10-04T00:18:59;1.23;;;1.00;;
7813;SDS011;3952;48.364;16.022;2022-10-04T00:25:02;1.20;;;1.10;;
7813;SDS011;3952;48.364;16.022;2022-10-04T00:31:06;1.03;;;0.93;;
7813;SDS011;3952;48.364;16.022;2022-10-04T00:33:44;0.97;;;0.97;;
7813;SDS011;3952;48.364;16.022;2022-10-04T00:36:35;1.37;;;1.00;;
7813;SDS011;3952;48.364;16.022;2022-10-04T00:39:15;1.73;;;1.20;;
7813;SDS011;3952;48.364;16.022;2022-10-04T00:41:50;1.47;;;0.77;;
7813;SDS011;3952;48.364;16.022;2022-10-04T00:44:27;1.87;;;1.10;;
7813;SDS011;3952;48.364;16.022;2022-10-04T00:46:59;2.63;;;1.20;;
7813;SDS011;3952;48.364;16.022;2022-10-04T00:49:30;1.00;;;1.00;;
7813;SDS011;3952;48.364;16.022;2022-10-04T00:52:05;0.80;;;0.80;;
7813;SDS011;3952;48.364;16.022;2022-10-04T00:54:40;1.30;;;1.10;;
7813;SDS011;3952;48.364;16.022;2022-10-04T00:57:10;1.00;;;0.93;;
7813;SDS011;3952;48.364;16.022;2022-10-04T00:59:42;1.47;;;1.00;;
7813;SDS011;3952;48.364;16.022;2022-10-04T01:02:14;1.10;;;1.03;;
7813;SDS011;3952;48.364;16.022;2022-10-04T01:04:44;1.60;;;0.93;;
7813;SDS011;3952;48.364;16.022;2022-10-04T01:07:18;1.17;;;1.07;;
7813;SDS011;3952;48.364;16.022;2022-10-04T01:09:52;0.90;;;0.83;;
7813;SDS011;3952;48.364;16.022;2022-10-04T01:12:30;1.30;;;0.97;;
7813;SDS011;3952;48.364;16.022;2022-10-04T01:15:05;0.77;;;0.73;;
7813;SDS011;3952;48.364;16.022;2022-10-04T01:17:37;1.97;;;1.13;;
7813;SDS011;3952;48.364;16.022;2022-10-04T01:20:12;1.00;;;1.00;;
7813;SDS011;3952;48.364;16.022;2022-10-04T01:22:57;1.07;;;0.83;;
7813;SDS011;3952;48.364;16.022;2022-10-04T01:28:18;1.90;;;0.97;;
7813;SDS011;3952;48.364;16.022;2022-10-04T01:30:46;3.83;;;1.20;;
7813;SDS011;3952;48.364;16.022;2022-10-04T01:33:13;0.80;;;0.80;;
7813;SDS011;3952;48.364;16.022;2022-10-04T01:35:40;1.40;;;1.13;;
7813;SDS011;3952;48.364;16.022;2022-10-04T01:38:10;1.60;;;1.23;;
7813;SDS011;3952;48.364;16.022;2022-10-04T01:40:38;1.10;;;1.00;;
7813;SDS011;3952;48.364;16.022;2022-10-04T01:43:13;2.67;;;1.17;;
7813;SDS011;3952;48.364;16.022;2022-10-04T01:45:45;1.73;;;1.30;;
7813;SDS011;3952;48.364;16.022;2022-10-04T01:48:16;0.90;;;0.90;;
7813;SDS011;3952;48.364;16.022;2022-10-04T01:50:50;1.07;;;1.07;;
7813;SDS011;3952;48.364;16.022;2022-10-04T01:53:24;1.20;;;1.10;;
7813;SDS011;3952;48.364;16.022;2022-10-04T01:55:55;1.17;;;1.03;;
7813;SDS011;3952;48.364;16.022;2022-10-04T01:58:32;0.80;;;0.80;;
7813;SDS011;3952;48.364;16.022;2022-10-04T02:01:07;1.10;;;0.80;;
7813;SDS011;3952;48.364;16.022;2022-10-04T02:03:38;2.10;;;1.10;;
7813;SDS011;3952;48.364;16.022;2022-10-04T02:06:09;1.27;;;1.20;;
7813;SDS011;3952;48.364;16.022;2022-10-04T02:08:40;2.13;;;1.20;;
7813;SDS011;3952;48.364;16.022;2022-10-04T02:11:15;1.70;;;1.40;;
7813;SDS011;3952;48.364;16.022;2022-10-04T02:13:46;1.63;;;1.00;;
7813;SDS011;3952;48.364;16.022;2022-10-04T02:16:16;1.53;;;1.23;;
7813;SDS011;3952;48.364;16.022;2022-10-04T02:18:45;2.10;;;1.10;;
7813;SDS011;3952;48.364;16.022;2022-10-04T02:21:13;1.70;;;1.60;;
7813;SDS011;3952;48.364;16.022;2022-10-04T02:23:43;1.90;;;1.47;;
7813;SDS011;3952;48.364;16.022;2022-10-04T02:26:12;1.77;;;1.07;;
7813;SDS011;3952;48.364;16.022;2022-10-04T02:28:39;1.53;;;1.10;;
7813;SDS011;3952;48.364;16.022;2022-10-04T02:31:07;0.90;;;0.90;;
7813;SDS011;3952;48.364;16.022;2022-10-04T02:33:55;1.60;;;1.10;;
7813;SDS011;3952;48.364;16.022;2022-10-04T02:36:25;2.03;;;1.27;;
7813;SDS011;3952;48.364;16.022;2022-10-04T02:38:56;2.13;;;1.13;;
7813;SDS011;3952;48.364;16.022;2022-10-04T02:41:28;1.57;;;1.20;;
7813;SDS011;3952;48.364;16.022;2022-10-04T02:44:00;1.60;;;1.10;;
7813;SDS011;3952;48.364;16.022;2022-10-04T02:46:35;1.20;;;1.10;;
7813;SDS011;3952;48.364;16.022;2022-10-04T02:49:14;0.93;;;0.90;;
7813;SDS011;3952;48.364;16.022;2022-10-04T02:51:48;2.57;;;1.03;;
7813;SDS011;3952;48.364;16.022;2022-10-04T02:54:21;1.97;;;1.10;;
7813;SDS011;3952;48.364;16.022;2022-10-04T02:56:55;1.20;;;1.10;;
7813;SDS011;3952;48.364;16.022;2022-10-04T02:59:23;1.20;;;1.10;;
7813;SDS011;3952;48.364;16.022;2022-10-04T03:01:51;2.10;;;1.10;;
7813;SDS011;3952;48.364;16.022;2022-10-04T03:04:22;1.67;;;1.30;;
7813;SDS011;3952;48.364;16.022;2022-10-04T03:06:51;2.70;;;1.30;;
7813;SDS011;3952;48.364;16.022;2022-10-04T03:09:21;1.43;;;1.33;;
7813;SDS011;3952;48.364;16.022;2022-10-04T03:11:50;2.93;;;1.30;;
7813;SDS011;3952;48.364;16.022;2022-10-04T03:14:18;1.20;;;0.90;;
7813;SDS011;3952;48.364;16.022;2022-10-04T03:16:48;1.60;;;1.07;;
7813;SDS011;3952;48.364;16.022;2022-10-04T03:19:19;1.63;;;1.30;;
7813;SDS011;3952;48.364;16.022;2022-10-04T03:21:49;1.00;;;1.00;;
7813;SDS011;3952;48.364;16.022;2022-10-04T03:24:19;1.57;;;1.20;;
7813;SDS011;3952;48.364;16.022;2022-10-04T03:26:53;1.43;;;1.27;;
7813;SDS011;3952;48.364;16.022;2022-10-04T03:29:22;7.10;;;1.37;;
7813;SDS011;3952;48.364;16.022;2022-10-04T03:31:53;1.33;;;1.30;;
7813;SDS011;3952;48.364;16.022;2022-10-04T03:34:22;1.63;;;1.30;;
7813;SDS011;3952;48.364;16.022;2022-10-04T03:36:51;1.47;;;1.37;;
7813;SDS011;3952;48.364;16.022;2022-10-04T03:39:27;1.70;;;1.30;;
7813;SDS011;3952;48.364;16.022;2022-10-04T03:41:56;1.40;;;1.17;;
7813;SDS011;3952;48.364;16.022;2022-10-04T03:44:24;1.40;;;1.30;;
7813;SDS011;3952;48.364;16.022;2022-10-04T03:46:52;2.83;;;1.50;;
7813;SDS011;3952;48.364;16.022;2022-10-04T03:49:24;1.80;;;1.70;;
7813;SDS011;3952;48.364;16.022;2022-10-04T03:51:59;2.33;;;1.93;;
7813;SDS011;3952;48.364;16.022;2022-10-04T03:54:28;2.07;;;1.87;;
7813;SDS011;3952;48.364;16.022;2022-10-04T03:56:57;2.20;;;2.00;;
7813;SDS011;3952;48.364;16.022;2022-10-04T03:59:26;3.60;;;2.60;;
7813;SDS011;3952;48.364;16.022;2022-10-04T04:01:59;2.20;;;2.10;;
7813;SDS011;3952;48.364;16.022;2022-10-04T04:04:35;2.57;;;2.30;;
7813;SDS011;3952;48.364;16.022;2022-10-04T04:07:10;2.90;;;2.23;;
7813;SDS011;3952;48.364;16.022;2022-10-04T04:09:42;2.50;;;2.30;;
7813;SDS011;3952;48.364;16.022;2022-10-04T04:12:13;4.43;;;2.30;;
7813;SDS011;3952;48.364;16.022;2022-10-04T04:14:43;2.90;;;2.60;;
7813;SDS011;3952;48.364;16.022;2022-10-04T04:17:16;6.77;;;2.63;;
7813;SDS011;3952;48.364;16.022;2022-10-04T04:19:56;2.60;;;2.40;;
7813;SDS011;3952;48.364;16.022;2022-10-04T04:22:25;2.63;;;2.13;;
7813;SDS011;3952;48.364;16.022;2022-10-04T04:24:57;3.23;;;2.93;;
7813;SDS011;3952;48.364;16.022;2022-10-04T04:27:26;2.80;;;2.50;;
7813;SDS011;3952;48.364;16.022;2022-10-04T04:29:56;2.50;;;2.30;;
7813;SDS011;3952;48.364;16.022;2022-10-04T04:32:28;4.80;;;2.50;;
7813;SDS011;3952;48.364;16.022;2022-10-04T04:35:01;4.13;;;2.50;;
7813;SDS011;3952;48.364;16.022;2022-10-04T04:37:31;3.63;;;2.37;;
7813;SDS011;3952;48.364;16.022;2022-10-04T04:40:09;2.67;;;2.33;;
7813;SDS011;3952;48.364;16.022;2022-10-04T04:42:45;3.03;;;2.83;;
7813;SDS011;3952;48.364;16.022;2022-10-04T04:45:15;2.70;;;2.47;;
7813;SDS011;3952;48.364;16.022;2022-10-04T04:47:45;2.60;;;2.37;;
7813;SDS011;3952;48.364;16.022;2022-10-04T04:50:16;2.83;;;2.20;;
7813;SDS011;3952;48.364;16.022;2022-10-04T04:52:46;5.33;;;2.47;;
7813;SDS011;3952;48.364;16.022;2022-10-04T04:55:19;2.53;;;2.33;;
7813;SDS011;3952;48.364;16.022;2022-10-04T04:57:48;3.47;;;2.47;;
7813;SDS011;3952;48.364;16.022;2022-10-04T05:00:20;2.53;;;2.40;;
7813;SDS011;3952;48.364;16.022;2022-10-04T05:02:54;5.40;;;2.43;;
7813;SDS011;3952;48.364;16.022;2022-10-04T05:05:22;5.20;;;2.60;;
7813;SDS011;3952;48.364;16.022;2022-10-04T05:08:02;2.60;;;2.40;;
7813;SDS011;3952;48.364;16.022;2022-10-04T05:10:40;5.07;;;2.77;;
7813;SDS011;3952;48.364;16.022;2022-10-04T05:13:10;5.03;;;2.77;;
7813;SDS011;3952;48.364;16.022;2022-10-04T05:15:39;3.70;;;2.63;;
7813;SDS011;3952;48.364;16.022;2022-10-04T05:18:12;4.47;;;2.50;;
7813;SDS011;3952;48.364;16.022;2022-10-04T05:20:54;2.60;;;2.40;;
7813;SDS011;3952;48.364;16.022;2022-10-04T05:23:28;3.63;;;2.53;;
7813;SDS011;3952;48.364;16.022;2022-10-04T05:25:57;2.80;;;2.30;;
7813;SDS011;3952;48.364;16.022;2022-10-04T05:28:26;2.77;;;2.57;;
7813;SDS011;3952;48.364;16.022;2022-10-04T05:33:44;2.97;;;2.63;;
7813;SDS011;3952;48.364;16.022;2022-10-04T05:36:25;5.37;;;2.60;;
7813;SDS011;3952;48.364;16.022;2022-10-04T05:39:13;3.43;;;2.80;;
7813;SDS011;3952;48.364;16.022;2022-10-04T05:41:56;3.47;;;2.30;;
7813;SDS011;3952;48.364;16.022;2022-10-04T05:44:34;4.30;;;2.50;;
7813;SDS011;3952;48.364;16.022;2022-10-04T05:47:04;3.53;;;2.83;;
7813;SDS011;3952;48.364;16.022;2022-10-04T05:49:35;2.80;;;2.60;;
7813;SDS011;3952;48.364;16.022;2022-10-04T05:52:12;5.43;;;3.17;;
7813;SDS011;3952;48.364;16.022;2022-10-04T05:54:42;4.70;;;3.23;;
7813;SDS011;3952;48.364;16.022;2022-10-04T05:57:19;6.50;;;3.20;;
7813;SDS011;3952;48.364;16.022;2022-10-04T06:00:00;4.43;;;2.93;;
7813;SDS011;3952;48.364;16.022;2022-10-04T06:02:45;5.07;;;3.13;;
7813;SDS011;3952;48.364;16.022;2022-10-04T06:05:37;8.00;;;3.10;;
7813;SDS011;3952;48.364;16.022;2022-10-04T06:08:16;4.47;;;3.00;;
7813;SDS011;3952;48.364;16.022;2022-10-04T06:16:55;2.83;;;2.63;;
7813;SDS011;3952;48.364;16.022;2022-10-04T06:22:41;3.10;;;2.80;;
7813;SDS011;3952;48.364;16.022;2022-10-04T06:25:11;3.67;;;2.83;;
7813;SDS011;3952;48.364;16.022;2022-10-04T06:27:42;2.73;;;2.53;;
7813;SDS011;3952;48.364;16.022;2022-10-04T06:30:18;9.67;;;3.20;;
7813;SDS011;3952;48.364;16.022;2022-10-04T06:33:05;5.57;;;3.10;;
7813;SDS011;3952;48.364;16.022;2022-10-04T06:35:48;5.50;;;2.80;;
7813;SDS011;3952;48.364;16.022;2022-10-04T06:41:29;3.13;;;2.63;;
7813;SDS011;3952;48.364;16.022;2022-10-04T06:44:33;4.33;;;3.03;;
7813;SDS011;3952;48.364;16.022;2022-10-04T06:47:15;4.07;;;3.40;;
7813;SDS011;3952;48.364;16.022;2022-10-04T06:50:02;3.07;;;2.80;;
7813;SDS011;3952;48.364;16.022;2022-10-04T06:52:43;7.47;;;3.10;;
7813;SDS011;3952;48.364;16.022;2022-10-04T06:55:30;5.70;;;2.87;;
7813;SDS011;3952;48.364;16.022;2022-10-04T06:58:18;4.37;;;2.93;;
7813;SDS011;3952;48.364;16.022;2022-10-04T07:01:00;3.10;;;2.90;;
7813;SDS011;3952;48.364;16.022;2022-10-04T07:03:32;2.90;;;2.70;;
7813;SDS011;3952;48.364;16.022;2022-10-04T07:06:06;2.87;;;2.30;;
7813;SDS011;3952;48.364;16.022;2022-10-04T07:08:36;3.03;;;2.73;;
7813;SDS011;3952;48.364;16.022;2022-10-04T07:11:11;2.83;;;2.50;;
7813;SDS011;3952;48.364;16.022;2022-10-04T07:13:43;3.00;;;2.80;;
7813;SDS011;3952;48.364;16.022;2022-10-04T07:16:30;3.87;;;2.50;;
7813;SDS011;3952;48.364;16.022;2022-10-04T07:19:06;4.27;;;2.70;;
7813;SDS011;3952;48.364;16.022;2022-10-04T07:21:54;3.50;;;2.70;;
7813;SDS011;3952;48.364;16.022;2022-10-04T07:24:32;5.53;;;3.10;;
7813;SDS011;3952;48.364;16.022;2022-10-04T07:27:07;3.00;;;2.77;;
7813;SDS011;3952;48.364;16.022;2022-10-04T07:29:41;7.37;;;3.40;;
7813;SDS011;3952;48.364;16.022;2022-10-04T07:32:11;4.10;;;3.00;;
7813;SDS011;3952;48.364;16.022;2022-10-04T07:34:44;3.67;;;3.30;;
7813;SDS011;3952;48.364;16.022;2022-10-04T07:37:18;4.30;;;3.00;;
7813;SDS011;3952;48.364;16.022;2022-10-04T07:39:48;2.70;;;2.40;;
7813;SDS011;3952;48.364;16.022;2022-10-04T07:42:21;5.77;;;2.73;;
7813;SDS011;3952;48.364;16.022;2022-10-04T07:44:57;3.73;;;2.90;;
7813;SDS011;3952;48.364;16.022;2022-10-04T07:47:35;3.83;;;2.73;;
7813;SDS011;3952;48.364;16.022;2022-10-04T07:50:13;3.73;;;2.83;;
7813;SDS011;3952;48.364;16.022;2022-10-04T07:52:50;3.50;;;2.50;;
7813;SDS011;3952;48.364;16.022;2022-10-04T07:55:25;2.80;;;2.60;;
7813;SDS011;3952;48.364;16.022;2022-10-04T07:58:01;2.70;;;2.50;;
7813;SDS011;3952;48.364;16.022;2022-10-04T08:00:49;4.47;;;2.70;;
7813;SDS011;3952;48.364;16.022;2022-10-04T08:03:40;2.37;;;2.27;;
7813;SDS011;3952;48.364;16.022;2022-10-04T08:06:28;3.47;;;2.83;;
7813;SDS011;3952;48.364;16.022;2022-10-04T08:11:52;3.13;;;2.80;;
7813;SDS011;3952;48.364;16.022;2022-10-04T08:14:31;4.50;;;2.60;;
7813;SDS011;3952;48.364;16.022;2022-10-04T08:17:19;3.03;;;2.10;;
7813;SDS011;3952;48.364;16.022;2022-10-04T08:19:55;6.70;;;3.20;;
7813;SDS011;3952;48.364;16.022;2022-10-04T08:22:33;3.13;;;2.77;;
7813;SDS011;3952;48.364;16.022;2022-10-04T08:25:14;6.43;;;2.43;;
7813;SDS011;3952;48.364;16.022;2022-10-04T08:27:50;3.93;;;2.20;;
7813;SDS011;3952;48.364;16.022;2022-10-04T08:30:52;2.60;;;2.23;;
7813;SDS011;3952;48.364;16.022;2022-10-04T08:33:35;4.07;;;2.20;;
7813;SDS011;3952;48.364;16.022;2022-10-04T08:36:18;2.47;;;2.20;;
7813;SDS011;3952;48.364;16.022;2022-10-04T08:38:56;3.63;;;2.10;;
7813;SDS011;3952;48.364;16.022;2022-10-04T08:41:41;4.60;;;2.10;;
7813;SDS011;3952;48.364;16.022;2022-10-04T08:44:57;2.67;;;2.20;;
7813;SDS011;3952;48.364;16.022;2022-10-04T08:51:05;3.27;;;2.37;;
7813;SDS011;3952;48.364;16.022;2022-10-04T08:57:21;2.63;;;2.30;;
7813;SDS011;3952;48.364;16.022;2022-10-04T09:00:07;4.23;;;1.80;;
7813;SDS011;3952;48.364;16.022;2022-10-04T09:02:46;2.83;;;2.53;;
7813;SDS011;3952;48.364;16.022;2022-10-04T09:05:53;2.47;;;2.27;;
7813;SDS011;3952;48.364;16.022;2022-10-04T09:11:31;2.80;;;2.23;;
7813;SDS011;3952;48.364;16.022;2022-10-04T09:17:15;2.07;;;1.80;;
7813;SDS011;3952;48.364;16.022;2022-10-04T09:19:49;2.67;;;2.00;;
7813;SDS011;3952;48.364;16.022;2022-10-04T09:22:24;3.80;;;2.20;;
7813;SDS011;3952;48.364;16.022;2022-10-04T09:25:09;2.30;;;2.10;;
7813;SDS011;3952;48.364;16.022;2022-10-04T09:27:57;2.00;;;1.77;;
7813;SDS011;3952;48.364;16.022;2022-10-04T09:30:51;2.20;;;2.10;;
7813;SDS011;3952;48.364;16.022;2022-10-04T09:33:48;2.90;;;2.60;;
7813;SDS011;3952;48.364;16.022;2022-10-04T09:36:53;2.93;;;2.20;;
7813;SDS011;3952;48.364;16.022;2022-10-04T09:39:44;2.73;;;2.03;;
7813;SDS011;3952;48.364;16.022;2022-10-04T09:42:27;4.87;;;2.00;;
7813;SDS011;3952;48.364;16.022;2022-10-04T09:45:13;2.27;;;2.07;;
7813;SDS011;3952;48.364;16.022;2022-10-04T09:48:14;2.63;;;1.70;;
7813;SDS011;3952;48.364;16.022;2022-10-04T09:51:05;1.80;;;1.70;;
7813;SDS011;3952;48.364;16.022;2022-10-04T09:53:57;2.40;;;2.03;;
7813;SDS011;3952;48.364;16.022;2022-10-04T09:56:39;2.57;;;2.00;;
7813;SDS011;3952;48.364;16.022;2022-10-04T10:05:41;3.60;;;2.33;;
7813;SDS011;3952;48.364;16.022;2022-10-04T10:08:23;2.30;;;2.10;;
7813;SDS011;3952;48.364;16.022;2022-10-04T10:11:00;2.30;;;2.10;;
7813;SDS011;3952;48.364;16.022;2022-10-04T10:14:02;2.30;;;2.10;;
7813;SDS011;3952;48.364;16.022;2022-10-04T10:16:49;4.77;;;2.00;;
7813;SDS011;3952;48.364;16.022;2022-10-04T10:19:33;2.73;;;2.10;;
7813;SDS011;3952;48.364;16.022;2022-10-04T10:22:27;2.70;;;1.67;;
7813;SDS011;3952;48.364;16.022;2022-10-04T10:25:26;4.83;;;1.93;;
7813;SDS011;3952;48.364;16.022;2022-10-04T10:28:11;2.17;;;1.87;;
7813;SDS011;3952;48.364;16.022;2022-10-04T10:31:00;5.10;;;2.50;;
7813;SDS011;3952;48.364;16.022;2022-10-04T10:33:56;4.73;;;2.10;;
7813;SDS011;3952;48.364;16.022;2022-10-04T10:37:01;2.27;;;1.87;;
7813;SDS011;3952;48.364;16.022;2022-10-04T10:42:58;2.73;;;2.03;;
7813;SDS011;3952;48.364;16.022;2022-10-04T10:45:41;2.40;;;2.20;;
7813;SDS011;3952;48.364;16.022;2022-10-04T10:48:29;2.50;;;1.70;;
7813;SDS011;3952;48.364;16.022;2022-10-04T10:51:15;1.73;;;1.63;;
7813;SDS011;3952;48.364;16.022;2022-10-04T10:53:59;3.70;;;1.57;;
7813;SDS011;3952;48.364;16.022;2022-10-04T10:56:54;2.03;;;1.60;;
7813;SDS011;3952;48.364;16.022;2022-10-04T11:08:50;2.00;;;1.70;;
7813;SDS011;3952;48.364;16.022;2022-10-04T11:11:43;8.00;;;2.10;;
7813;SDS011;3952;48.364;16.022;2022-10-04T11:14:47;2.00;;;1.73;;
7813;SDS011;3952;48.364;16.022;2022-10-04T11:17:38;1.50;;;1.40;;
7813;SDS011;3952;48.364;16.022;2022-10-04T11:27:21;2.07;;;1.70;;
7813;SDS011;3952;48.364;16.022;2022-10-04T11:30:06;2.07;;;1.90;;
7813;SDS011;3952;48.364;16.022;2022-10-04T11:38:56;1.80;;;1.67;;
7813;SDS011;3952;48.364;16.022;2022-10-04T11:41:33;1.77;;;1.67;;
7813;SDS011;3952;48.364;16.022;2022-10-04T11:44:41;2.17;;;1.67;;
7813;SDS011;3952;48.364;16.022;2022-10-04T11:47:39;1.70;;;1.60;;
7813;SDS011;3952;48.364;16.022;2022-10-04T11:56:10;1.93;;;1.83;;
7813;SDS011;3952;48.364;16.022;2022-10-04T11:58:48;1.83;;;1.70;;
7813;SDS011;3952;48.364;16.022;2022-10-04T12:07:47;1.67;;;1.57;;
7813;SDS011;3952;48.364;16.022;2022-10-04T12:10:28;2.17;;;1.97;;
7813;SDS011;3952;48.364;16.022;2022-10-04T12:13:04;1.70;;;1.60;;
7813;SDS011;3952;48.364;16.022;2022-10-04T12:16:09;1.60;;;1.50;;
7813;SDS011;3952;48.364;16.022;2022-10-04T12:18:57;1.67;;;1.50;;
7813;SDS011;3952;48.364;16.022;2022-10-04T12:21:51;1.97;;;1.77;;
7813;SDS011;3952;48.364;16.022;2022-10-04T12:30:24;2.63;;;2.00;;
7813;SDS011;3952;48.364;16.022;2022-10-04T12:33:11;2.77;;;1.80;;
7813;SDS011;3952;48.364;16.022;2022-10-04T12:35:47;2.00;;;1.90;;
7813;SDS011;3952;48.364;16.022;2022-10-04T12:38:33;1.90;;;1.80;;
7813;SDS011;3952;48.364;16.022;2022-10-04T12:41:17;1.60;;;1.50;;
7813;SDS011;3952;48.364;16.022;2022-10-04T12:43:56;1.70;;;1.60;;
7813;SDS011;3952;48.364;16.022;2022-10-04T12:46:36;2.63;;;2.43;;
7813;SDS011;3952;48.364;16.022;2022-10-04T12:49:19;1.97;;;1.87;;
7813;SDS011;3952;48.364;16.022;2022-10-04T12:51:59;2.17;;;1.70;;
7813;SDS011;3952;48.364;16.022;2022-10-04T12:54:37;1.47;;;1.37;;
7813;SDS011;3952;48.364;16.022;2022-10-04T12:57:14;3.93;;;1.63;;
7813;SDS011;3952;48.364;16.022;2022-10-04T13:00:14;1.00;;;0.90;;
7813;SDS011;3952;48.364;16.022;2022-10-04T13:05:46;0.87;;;0.83;;
7813;SDS011;3952;48.364;16.022;2022-10-04T13:08:21;1.33;;;0.80;;
7813;SDS011;3952;48.364;16.022;2022-10-04T13:11:11;1.10;;;0.90;;
7813;SDS011;3952;48.364;16.022;2022-10-04T13:16:55;1.10;;;1.00;;
7813;SDS011;3952;48.364;16.022;2022-10-04T13:19:28;1.90;;;0.87;;
7813;SDS011;3952;48.364;16.022;2022-10-04T13:22:08;1.20;;;0.80;;
7813;SDS011;3952;48.364;16.022;2022-10-04T13:24:56;1.17;;;1.07;;
7813;SDS011;3952;48.364;16.022;2022-10-04T13:27:47;1.13;;;1.03;;
7813;SDS011;3952;48.364;16.022;2022-10-04T13:30:19;2.00;;;1.10;;
7813;SDS011;3952;48.364;16.022;2022-10-04T13:32:52;0.90;;;0.83;;
7813;SDS011;3952;48.364;16.022;2022-10-04T13:35:26;0.90;;;0.90;;
7813;SDS011;3952;48.364;16.022;2022-10-04T13:38:18;1.57;;;1.17;;
7813;SDS011;3952;48.364;16.022;2022-10-04T13:41:06;2.70;;;1.20;;
7813;SDS011;3952;48.364;16.022;2022-10-04T13:43:59;1.47;;;1.37;;
7813;SDS011;3952;48.364;16.022;2022-10-04T13:46:47;0.90;;;0.90;;
7813;SDS011;3952;48.364;16.022;2022-10-04T13:49:28;1.17;;;1.13;;
7813;SDS011;3952;48.364;16.022;2022-10-04T13:52:08;1.00;;;0.90;;
7813;SDS011;3952;48.364;16.022;2022-10-04T13:55:02;0.80;;;0.80;;
7813;SDS011;3952;48.364;16.022;2022-10-04T13:58:07;1.03;;;0.90;;
7813;SDS011;3952;48.364;16.022;2022-10-04T14:00:54;1.27;;;0.97;;
7813;SDS011;3952;48.364;16.022;2022-10-04T14:03:37;0.70;;;0.70;;
7813;SDS011;3952;48.364;16.022;2022-10-04T14:09:43;1.00;;;0.90;;
7813;SDS011;3952;48.364;16.022;2022-10-04T14:12:44;1.90;;;1.20;;
7813;SDS011;3952;48.364;16.022;2022-10-04T14:15:40;1.63;;;0.80;;
7813;SDS011;3952;48.364;16.022;2022-10-04T14:18:44;1.20;;;1.10;;
7813;SDS011;3952;48.364;16.022;2022-10-04T14:21:39;1.50;;;1.10;;
7813;SDS011;3952;48.364;16.022;2022-10-04T14:27:36;1.27;;;1.17;;
7813;SDS011;3952;48.364;16.022;2022-10-04T14:30:16;1.43;;;0.90;;
7813;SDS011;3952;48.364;16.022;2022-10-04T14:32:58;1.33;;;0.90;;
7813;SDS011;3952;48.364;16.022;2022-10-04T14:35:55;1.00;;;1.00;;
7813;SDS011;3952;48.364;16.022;2022-10-04T14:38:41;4.73;;;1.30;;
7813;SDS011;3952;48.364;16.022;2022-10-04T14:44:39;1.17;;;0.97;;
7813;SDS011;3952;48.364;16.022;2022-10-04T14:47:24;1.97;;;1.03;;
7813;SDS011;3952;48.364;16.022;2022-10-04T14:50:28;1.10;;;1.10;;
7813;SDS011;3952;48.364;16.022;2022-10-04T14:53:07;0.90;;;0.90;;
7813;SDS011;3952;48.364;16.022;2022-10-04T14:55:50;1.20;;;1.07;;
7813;SDS011;3952;48.364;16.022;2022-10-04T14:58:35;0.60;;;0.60;;
7813;SDS011;3952;48.364;16.022;2022-10-04T15:01:18;0.70;;;0.70;;
7813;SDS011;3952;48.364;16.022;2022-10-04T15:03:56;0.97;;;0.97;;
7813;SDS011;3952;48.364;16.022;2022-10-04T15:06:46;1.70;;;0.83;;
7813;SDS011;3952;48.364;16.022;2022-10-04T15:12:37;2.60;;;1.00;;
7813;SDS011;3952;48.364;16.022;2022-10-04T15:15:28;5.10;;;1.30;;
7813;SDS011;3952;48.364;16.022;2022-10-04T15:18:10;1.40;;;1.00;;
7813;SDS011;3952;48.364;16.022;2022-10-04T15:20:52;1.00;;;0.90;;
7813;SDS011;3952;48.364;16.022;2022-10-04T15:23:28;3.17;;;1.40;;
7813;SDS011;3952;48.364;16.022;2022-10-04T15:26:03;0.90;;;0.90;;
7813;SDS011;3952;48.364;16.022;2022-10-04T15:28:40;1.00;;;1.00;;
7813;SDS011;3952;48.364;16.022;2022-10-04T15:31:18;1.40;;;1.30;;
7813;SDS011;3952;48.364;16.022;2022-10-04T15:33:55;1.13;;;1.03;;
7813;SDS011;3952;48.364;16.022;2022-10-04T15:36:45;1.40;;;1.30;;
7813;SDS011;3952;48.364;16.022;2022-10-04T15:39:37;1.10;;;0.97;;
7813;SDS011;3952;48.364;16.022;2022-10-04T15:42:24;2.20;;;1.23;;
7813;SDS011;3952;48.364;16.022;2022-10-04T15:45:06;1.00;;;1.00;;
7813;SDS011;3952;48.364;16.022;2022-10-04T15:48:04;3.13;;;1.13;;
7813;SDS011;3952;48.364;16.022;2022-10-04T15:50:54;1.27;;;1.20;;
7813;SDS011;3952;48.364;16.022;2022-10-04T15:56:25;1.63;;;1.30;;
7813;SDS011;3952;48.364;16.022;2022-10-04T15:59:16;1.53;;;1.40;;
7813;SDS011;3952;48.364;16.022;2022-10-04T16:02:06;1.63;;;1.53;;
7813;SDS011;3952;48.364;16.022;2022-10-04T16:04:57;1.27;;;1.17;;
7813;SDS011;3952;48.364;16.022;2022-10-04T16:07:36;1.40;;;1.30;;
7813;SDS011;3952;48.364;16.022;2022-10-04T16:10:18;1.40;;;1.30;;
7813;SDS011;3952;48.364;16.022;2022-10-04T16:18:58;1.70;;;1.60;;
7813;SDS011;3952;48.364;16.022;2022-10-04T16:21:37;1.50;;;1.40;;
7813;SDS011;3952;48.364;16.022;2022-10-04T16:27:14;1.97;;;1.57;;
7813;SDS011;3952;48.364;16.022;2022-10-04T16:30:01;2.60;;;2.00;;
7813;SDS011;3952;48.364;16.022;2022-10-04T16:32:36;2.10;;;1.90;;
7813;SDS011;3952;48.364;16.022;2022-10-04T16:35:14;2.30;;;2.10;;
7813;SDS011;3952;48.364;16.022;2022-10-04T16:37:54;3.67;;;2.20;;
7813;SDS011;3952;48.364;16.022;2022-10-04T16:40:31;1.83;;;1.73;;
7813;SDS011;3952;48.364;16.022;2022-10-04T16:43:01;1.90;;;1.70;;
7813;SDS011;3952;48.364;16.022;2022-10-04T16:45:39;1.70;;;1.60;;
7813;SDS011;3952;48.364;16.022;2022-10-04T16:48:12;1.70;;;1.60;;
7813;SDS011;3952;48.364;16.022;2022-10-04T16:50:55;3.83;;;1.73;;
7813;SDS011;3952;48.364;16.022;2022-10-04T16:53:46;3.00;;;1.70;;
7813;SDS011;3952;48.364;16.022;2022-10-04T16:56:19;2.20;;;2.10;;
7813;SDS011;3952;48.364;16.022;2022-10-04T16:58:48;1.70;;;1.60;;
7813;SDS011;3952;48.364;16.022;2022-10-04T17:01:36;2.83;;;2.43;;
7813;SDS011;3952;48.364;16.022;2022-10-04T17:04:32;1.93;;;1.83;;
7813;SDS011;3952;48.364;16.022;2022-10-04T17:07:31;2.30;;;2.07;;
7813;SDS011;3952;48.364;16.022;2022-10-04T17:10:18;1.87;;;1.67;;
7813;SDS011;3952;48.364;16.022;2022-10-04T17:13:05;1.53;;;1.43;;
7813;SDS011;3952;48.364;16.022;2022-10-04T17:15:47;1.57;;;1.53;;
7813;SDS011;3952;48.364;16.022;2022-10-04T17:18:27;2.10;;;1.70;;
7813;SDS011;3952;48.364;16.022;2022-10-04T17:21:00;1.70;;;1.60;;
7813;SDS011;3952;48.364;16.022;2022-10-04T17:26:41;1.60;;;1.50;;
7813;SDS011;3952;48.364;16.022;2022-10-04T17:29:23;1.80;;;1.70;;
7813;SDS011;3952;48.364;16.022;2022-10-04T17:32:04;1.70;;;1.60;;
7813;SDS011;3952;48.364;16.022;2022-10-04T17:34:43;2.37;;;1.97;;
7813;SDS011;3952;48.364;16.022;2022-10-04T17:37:20;1.60;;;1.50;;
7813;SDS011;3952;48.364;16.022;2022-10-04T17:40:05;1.57;;;1.50;;
7813;SDS011;3952;48.364;16.022;2022-10-04T17:42:47;1.50;;;1.40;;
7813;SDS011;3952;48.364;16.022;2022-10-04T17:45:39;1.93;;;1.70;;
7813;SDS011;3952;48.364;16.022;2022-10-04T17:48:23;2.40;;;2.20;;
7813;SDS011;3952;48.364;16.022;2022-10-04T17:51:26;2.00;;;1.90;;
7813;SDS011;3952;48.364;16.022;2022-10-04T17:54:17;1.90;;;1.80;;
7813;SDS011;3952;48.364;16.022;2022-10-04T17:57:11;2.13;;;2.00;;
7813;SDS011;3952;48.364;16.022;2022-10-04T17:59:51;3.93;;;1.87;;
7813;SDS011;3952;48.364;16.022;2022-10-04T18:02:27;1.53;;;1.53;;
7813;SDS011;3952;48.364;16.022;2022-10-04T18:05:12;3.27;;;1.90;;
7813;SDS011;3952;48.364;16.022;2022-10-04T18:07:46;1.43;;;1.43;;
7813;SDS011;3952;48.364;16.022;2022-10-04T18:10:21;1.60;;;1.50;;
7813;SDS011;3952;48.364;16.022;2022-10-04T18:12:55;1.70;;;1.60;;
7813;SDS011;3952;48.364;16.022;2022-10-04T18:15:27;2.43;;;2.17;;
7813;SDS011;3952;48.364;16.022;2022-10-04T18:18:05;4.00;;;3.70;;
7813;SDS011;3952;48.364;16.022;2022-10-04T18:20:45;5.67;;;5.10;;